• Join FlightAware (Why Join?)
  • Login
  • US Flag 
11:58PM EST


 

Airport Tracker/Info


-or-


 

Live Flight TrackerFlight Track Log ✈ JAL332 ✈ 24-Apr-2013 ✈ RJFF / FUK - RJTT / HND

Flight Track Log - Related Links

Times and Time Zones

All times are in EDT time to prevent confusion due to time zone crossing. See the JAL332 flight status page for this flight to view local times or setup timezone preferences in your user account.

Time Position Orientation Groundspeed Altitude Reporting Facility
EDT Latitude Longitude Course Direction KTS MPH feet Rate Location/Type
07:30AM 33.6978 130.8909 73° East  Level Estimated
07:31AM 33.7345 131.0381 73° East  Level Estimated
07:32AM 33.7710 131.1853 73° East  Level Estimated
07:33AM 33.8073 131.3328 73° East  Level Estimated
07:34AM 33.8435 131.4803 74° East  Level Estimated
07:35AM 33.8795 131.6279 74° East  Level Estimated
07:36AM 33.9153 131.7757 74° East  Level Estimated
07:37AM 33.9509 131.9236 74° East  Level Estimated
07:38AM 33.9864 132.0717 74° East  Level Estimated
07:39AM 34.0217 132.2198 74° East  Level Estimated
07:40AM 34.0568 132.3681 74° East  Level Estimated
07:41AM 34.0917 132.5165 74° East  Level Estimated
07:42AM 34.1265 132.6650 74° East  Level Estimated
07:43AM 34.1610 132.8137 74° East  Level Estimated
07:44AM 34.1954 132.9624 74° East  Level Estimated
07:45AM 34.2296 133.1113 74° East  Level Estimated
07:46AM 34.2637 133.2603 75° East  Level Estimated
07:47AM 34.2975 133.4095 75° East  Level Estimated
07:48AM 34.3312 133.5587 75° East  Level Estimated
07:49AM 34.3647 133.7081 75° East  Level Estimated
07:50AM 34.3980 133.8576 75° East  Level Estimated
07:51AM 34.4311 134.0072 75° East  Level Estimated
07:52AM 34.4626 134.1500 75° East  Level Estimated
07:53AM 34.4938 134.2929 75° East  Level Estimated
07:54AM 34.5249 134.4359 75° East  Level Estimated
07:55AM 34.5558 134.5790 75° East  Level Estimated
07:56AM 34.5866 134.7223 75° East  Level Estimated
07:57AM 34.6172 134.8656 75° East  Level Estimated
07:58AM 34.6476 135.0091 76° East  Level Estimated
07:59AM 34.6779 135.1526 76° East  Level Estimated
08:00AM 34.7080 135.2963 76° East  Level Estimated
08:01AM 34.7379 135.4400 76° East  Level Estimated
08:02AM 34.7676 135.5839 76° East  Level Estimated
08:03AM 34.7972 135.7279 76° East  Level Estimated
08:04AM 34.8266 135.8719 76° East  Level Estimated
08:05AM 34.8559 136.0161 76° East  Level Estimated
08:06AM 34.8849 136.1604 76° East  Level Estimated
08:07AM 34.9138 136.3048 76° East  Level Estimated
08:08AM 34.9426 136.4493 76° East  Level Estimated
08:09AM 34.9711 136.5938 76° East  Level Estimated
08:10AM 34.9995 136.7385 76° East  Level Estimated
08:11AM 35.0277 136.8833 77° East  Level Estimated
08:12AM 35.0558 137.0282 77° East  Level Estimated
08:13AM 35.0836 137.1732 77° East  Level Estimated
08:14AM 35.1113 137.3182 77° East  Level Estimated
08:15AM 35.1389 137.4634 77° East  Level Estimated
08:16AM 35.1662 137.6087 77° East  Level Estimated
08:17AM 35.1934 137.7541 77° East  Level Estimated
08:18AM 35.2204 137.8995 77° East  Level Estimated
08:19AM 35.2472 138.0451 77° East  Level Estimated
08:20AM 35.2739 138.1908 77° East  Level Estimated
08:21AM 35.3004 138.3365 77° East  Level Estimated
08:22AM 35.3267 138.4824 77° East  Level Estimated
08:23AM 35.3503 138.6141 78° East  Level Estimated
08:24AM 35.3737 138.7460 78° East  Level Estimated
08:25AM 35.3971 138.8779 78° East  Level Estimated
08:26AM 35.4202 139.0099 78° East  Level Estimated
08:27AM 35.4433 139.1419 78° East  Level Estimated
08:28AM 35.4665 139.2759 78° East  Level Estimated
08:29AM 35.4895 139.4100 78° East  Level Estimated
08:30AM 35.5124 139.5441 78° East  Level Estimated
08:31AM 35.5352 139.6784 78° East  Level Estimated
08:32AM 35.5523 139.7797 78° East  Level Estimated
08:33AM 35.5523 139.7797 122° Southeast  Level Estimated
08:34AM 35.5523 139.7797 122° Southeast  Level Estimated
08:35AM 35.5523 139.7797 122° Southeast  Level Estimated
08:36AM 35.5523 139.7797 122° Southeast  Level Estimated
08:37AM 35.5523 139.7797 122° Southeast  Level Estimated
08:38AM 35.5523 139.7797 122° Southeast  Level Estimated
08:39AM 35.5523 139.7797 122° Southeast  Level Estimated
08:40AM 35.5523 139.7797 122° Southeast  Level Estimated
08:41AM 35.5523 139.7797 122° Southeast  Level Estimated
08:42AM 35.5523 139.7797 122° Southeast  Level Estimated
08:43AM 35.5523 139.7797 122° Southeast  Level Estimated
08:44AM 35.5523 139.7797 122° Southeast  Level Estimated
08:45AM 35.5523 139.7797 122° Southeast  Level Estimated
08:46AM 35.5523 139.7797 122° Southeast  Level Estimated
08:47AM 35.5523 139.7797 122° Southeast  Level Estimated
08:48AM 35.5523 139.7797 122° Southeast  Level Estimated
08:49AM 35.5523 139.7797 122° Southeast  Level Estimated
08:50AM 35.5523 139.7797 122° Southeast  Level Estimated
08:51AM 35.5523 139.7797 122° Southeast  Level Estimated